Time;durP1;ratioP1;P1;durP2;ratioP2;P2;SDS_P1;SDS_P2;PMS_P1;PMS_P2;Temp;Humidity;BMP_temperature;BMP_pressure;BME280_temperature;BME280_humidity;BME280_pressure;Samples;Min_cycle;Max_cycle;Signal;HPM_P1;HPM_P2
2021/08/28 00:00:01;;;;;;;6.80;1.33;;;13.90;99.90;;;;;;5025647;28;20585;-82
2021/08/28 00:02:30;;;;;;;3.58;1.00;;;14.00;99.90;;;;;;5053104;28;20040;-84
2021/08/28 00:04:57;;;;;;;3.45;1.05;;;14.00;99.90;;;;;;5018239;28;20045;-83
2021/08/28 00:07:23;;;;;;;6.72;1.10;;;14.00;99.90;;;;;;5052313;28;20691;-86
2021/08/28 00:09:50;;;;;;;7.55;1.85;;;14.00;99.90;;;;;;5037634;28;20058;-87
2021/08/28 00:12:16;;;;;;;7.03;1.48;;;14.00;99.90;;;;;;5054778;28;20496;-85
2021/08/28 00:14:43;;;;;;;9.05;1.17;;;14.00;99.90;;;;;;5020428;28;20048;-84
2021/08/28 00:17:09;;;;;;;8.45;1.23;;;14.10;99.90;;;;;;5035738;28;20043;-87
2021/08/28 00:19:35;;;;;;;7.07;1.65;;;14.20;99.90;;;;;;5035657;28;20051;-86
2021/08/28 00:22:02;;;;;;;5.20;1.38;;;14.20;99.90;;;;;;5051389;28;20058;-82
2021/08/28 00:24:29;;;;;;;5.35;1.60;;;14.30;99.90;;;;;;5051447;28;20043;-83
2021/08/28 00:27:07;;;;;;;7.22;1.70;;;14.30;99.90;;;;;;5052512;28;20051;-82
2021/08/28 00:29:33;;;;;;;4.43;1.42;;;14.40;99.90;;;;;;5051368;28;20051;-82
2021/08/28 00:32:00;;;;;;;6.85;1.40;;;14.40;99.90;;;;;;5034825;28;20040;-86
2021/08/28 00:34:26;;;;;;;6.55;2.25;;;14.50;99.90;;;;;;5052076;28;20044;-83
2021/08/28 00:36:53;;;;;;;11.07;4.47;;;14.50;99.90;;;;;;5067630;28;20050;-80
2021/08/28 00:39:19;;;;;;;6.72;2.78;;;14.50;99.90;;;;;;5033947;28;20048;-82
2021/08/28 00:41:46;;;;;;;7.85;1.98;;;14.50;99.90;;;;;;5034949;28;20032;-82
2021/08/28 00:44:12;;;;;;;7.03;1.52;;;14.50;99.90;;;;;;5034648;28;20049;-82
2021/08/28 00:46:39;;;;;;;5.03;1.65;;;14.60;99.90;;;;;;5051359;28;20485;-81
2021/08/28 00:49:06;;;;;;;8.80;1.48;;;14.60;99.90;;;;;;5051087;28;20052;-82
2021/08/28 00:51:33;;;;;;;4.70;1.58;;;14.60;99.90;;;;;;5050513;28;20055;-81
2021/08/28 00:54:00;;;;;;;5.68;1.67;;;14.60;99.90;;;;;;5051738;28;20490;-82
2021/08/28 00:56:28;;;;;;;5.72;1.40;;;14.60;99.90;;;;;;5033240;28;20044;-82
2021/08/28 00:58:55;;;;;;;10.65;1.90;;;14.60;99.90;;;;;;5034620;28;20048;-82
2021/08/28 01:01:23;;;;;;;10.07;1.65;;;14.50;99.90;;;;;;5052255;28;20043;-82
2021/08/28 01:04:00;;;;;;;6.97;1.73;;;14.60;99.90;;;;;;5051676;28;20035;-82
2021/08/28 01:06:42;;;;;;;6.68;1.70;;;14.60;99.90;;;;;;5034912;28;20053;-82
2021/08/28 01:09:45;;;;;;;6.22;1.50;;;14.60;99.90;;;;;;5022560;28;20059;-82
2021/08/28 01:12:38;;;;;;;5.10;1.33;;;14.60;99.90;;;;;;5067114;28;20399;-81
2021/08/28 01:15:13;;;;;;;7.53;1.65;;;14.60;99.90;;;;;;5049653;28;20051;-87
2021/08/28 01:17:47;;;;;;;7.75;2.00;;;14.60;99.90;;;;;;5064671;28;20032;-81
2021/08/28 01:20:36;;;;;;;6.18;1.60;;;14.60;99.90;;;;;;5051569;28;20028;-81
2021/08/28 01:23:26;;;;;;;7.32;1.70;;;14.60;99.90;;;;;;5052911;28;20051;-81
2021/08/28 01:26:05;;;;;;;4.57;1.10;;;14.60;99.90;;;;;;5034146;28;20055;-81
2021/08/28 01:28:44;;;;;;;9.57;1.80;;;14.60;99.90;;;;;;5067930;28;20043;-82
2021/08/28 01:31:12;;;;;;;8.13;1.70;;;14.60;99.90;;;;;;5034937;28;20044;-81
2021/08/28 01:33:41;;;;;;;8.65;1.80;;;14.70;99.90;;;;;;5051760;28;20047;-81
2021/08/28 01:36:13;;;;;;;10.02;1.80;;;14.70;99.90;;;;;;5034236;28;20590;-81
2021/08/28 01:38:59;;;;;;;7.07;1.40;;;14.70;99.90;;;;;;5033277;28;20056;-81
2021/08/28 01:41:26;;;;;;;5.80;1.85;;;14.70;99.90;;;;;;5062395;28;20052;-82
2021/08/28 01:43:57;;;;;;;9.52;2.60;;;14.70;99.90;;;;;;5052191;28;20040;-81
2021/08/28 01:46:25;;;;;;;6.72;1.55;;;14.80;99.90;;;;;;5060470;28;20032;-82
2021/08/28 01:48:56;;;;;;;3.83;1.60;;;14.80;99.90;;;;;;5025858;28;20053;-81
2021/08/28 01:51:30;;;;;;;4.07;1.17;;;14.80;99.90;;;;;;5048587;28;20040;-81
2021/08/28 01:53:59;;;;;;;6.20;1.85;;;14.80;99.90;;;;;;5025477;28;20037;-80
2021/08/28 01:56:26;;;;;;;8.52;1.77;;;14.70;99.90;;;;;;5036049;28;20046;-81
2021/08/28 01:58:53;;;;;;;5.22;2.55;;;14.70;99.90;;;;;;5052360;28;20032;-81
2021/08/28 02:01:46;;;;;;;9.10;4.80;;;14.70;99.90;;;;;;5046365;28;20043;-81
2021/08/28 02:04:13;;;;;;;6.75;2.88;;;14.70;99.90;;;;;;5038798;28;20451;-81
2021/08/28 02:07:00;;;;;;;4.57;2.10;;;14.60;99.90;;;;;;5069872;28;20709;-82
2021/08/28 02:09:41;;;;;;;10.23;1.73;;;14.60;99.90;;;;;;5033639;28;20376;-80
2021/08/28 02:12:14;;;;;;;6.78;2.22;;;14.60;99.90;;;;;;5036620;28;20047;-81
2021/08/28 02:15:11;;;;;;;6.35;1.95;;;14.60;99.90;;;;;;5035736;28;20044;-81
2021/08/28 02:17:46;;;;;;;5.00;1.83;;;14.70;99.90;;;;;;5052716;28;20038;-83
2021/08/28 02:20:15;;;;;;;6.95;2.10;;;14.70;99.90;;;;;;5054465;28;20043;-83
2021/08/28 02:23:00;;;;;;;8.55;2.08;;;14.70;99.90;;;;;;5053457;28;20035;-83
2021/08/28 02:25:51;;;;;;;8.38;2.80;;;14.70;99.90;;;;;;5070461;28;20379;-83
2021/08/28 02:28:26;;;;;;;6.88;2.22;;;14.80;99.90;;;;;;5070303;28;20036;-83
2021/08/28 02:30:57;;;;;;;8.30;2.08;;;14.80;99.90;;;;;;5071376;28;20028;-83
2021/08/28 02:33:31;;;;;;;4.90;1.73;;;14.80;99.90;;;;;;5053847;28;20129;-84
2021/08/28 02:35:59;;;;;;;5.57;2.05;;;14.80;99.90;;;;;;5035111;28;20051;-83
2021/08/28 02:38:28;;;;;;;5.60;1.77;;;14.70;99.90;;;;;;5050247;28;20395;-83
2021/08/28 02:40:57;;;;;;;5.78;1.52;;;14.70;99.90;;;;;;5053491;28;20118;-84
2021/08/28 02:43:26;;;;;;;8.50;2.20;;;14.80;99.90;;;;;;5051965;28;20040;-82
2021/08/28 02:45:56;;;;;;;9.10;1.55;;;14.80;99.90;;;;;;5036660;28;20051;-80
2021/08/28 02:48:28;;;;;;;8.00;2.25;;;14.70;99.90;;;;;;5052647;28;20028;-81
2021/08/28 02:50:57;;;;;;;7.82;2.38;;;14.80;99.90;;;;;;5070711;28;20040;-80
2021/08/28 02:53:26;;;;;;;10.18;2.47;;;14.80;99.90;;;;;;5053559;28;20738;-81
2021/08/28 02:55:53;;;;;;;11.32;2.78;;;14.90;99.90;;;;;;5030327;28;20130;-81
2021/08/28 02:58:21;;;;;;;8.77;2.70;;;14.90;99.90;;;;;;5032945;28;20055;-81
2021/08/28 03:00:50;;;;;;;8.93;2.53;;;14.90;99.90;;;;;;5052554;28;20043;-82
2021/08/28 03:03:18;;;;;;;8.57;2.22;;;15.00;99.90;;;;;;5070024;28;20047;-83
2021/08/28 03:05:49;;;;;;;12.43;2.58;;;15.00;99.90;;;;;;5071384;28;20036;-83
2021/08/28 03:08:18;;;;;;;4.45;1.70;;;15.10;99.90;;;;;;5069586;28;20040;-81
2021/08/28 03:10:51;;;;;;;6.75;2.63;;;15.10;99.90;;;;;;5020412;28;20055;-81
2021/08/28 03:13:21;;;;;;;7.63;2.25;;;15.10;99.90;;;;;;5036566;28;20044;-81
2021/08/28 03:15:50;;;;;;;5.57;1.70;;;15.10;99.90;;;;;;5052792;28;20044;-80
2021/08/28 03:18:21;;;;;;;7.63;2.08;;;15.10;99.90;;;;;;5034312;28;20051;-80
2021/08/28 03:20:53;;;;;;;5.95;2.03;;;15.10;99.90;;;;;;5053116;28;20040;-80
2021/08/28 03:23:23;;;;;;;3.10;1.33;;;15.10;99.90;;;;;;5052179;28;20048;-80
2021/08/28 03:25:53;;;;;;;8.80;2.25;;;15.10;99.90;;;;;;5069854;28;20032;-81
2021/08/28 03:28:22;;;;;;;5.68;1.48;;;15.10;99.90;;;;;;5068321;28;20051;-80
2021/08/28 03:30:49;;;;;;;6.35;1.75;;;15.10;99.90;;;;;;5053705;28;20050;-81
2021/08/28 03:33:17;;;;;;;4.95;1.52;;;15.10;99.90;;;;;;5042081;28;20063;-81
2021/08/28 03:35:50;;;;;;;4.35;1.42;;;15.10;99.90;;;;;;5037143;28;20387;-80
2021/08/28 03:38:18;;;;;;;3.72;1.25;;;15.10;99.90;;;;;;5051867;28;20058;-80
2021/08/28 03:40:46;;;;;;;8.05;2.22;;;15.10;99.90;;;;;;5053000;28;20044;-81
2021/08/28 03:43:13;;;;;;;3.80;1.65;;;15.20;99.90;;;;;;5068593;28;20040;-80
2021/08/28 03:45:40;;;;;;;3.90;1.48;;;15.30;99.90;;;;;;5069616;28;20035;-80
2021/08/28 03:48:08;;;;;;;6.40;2.03;;;15.30;99.90;;;;;;5068500;28;20032;-80
2021/08/28 03:50:36;;;;;;;4.90;1.63;;;15.30;99.90;;;;;;5053029;28;20039;-80
2021/08/28 03:53:05;;;;;;;5.20;1.95;;;15.30;99.90;;;;;;5036789;28;20048;-80
2021/08/28 03:55:31;;;;;;;4.60;1.70;;;15.30;99.90;;;;;;5069033;28;20044;-81
2021/08/28 03:57:59;;;;;;;7.03;2.30;;;15.30;99.90;;;;;;5051896;28;20043;-80
2021/08/28 04:00:27;;;;;;;5.93;1.90;;;15.40;99.90;;;;;;5053470;28;20526;-80
2021/08/28 04:03:03;;;;;;;4.68;2.05;;;15.30;99.90;;;;;;5039837;28;20047;-80
2021/08/28 04:05:31;;;;;;;5.30;1.63;;;15.40;99.90;;;;;;5052271;28;20406;-80
2021/08/28 04:08:10;;;;;;;5.32;2.05;;;15.40;99.90;;;;;;5023474;28;20039;-80
2021/08/28 04:10:44;;;;;;;3.22;1.90;;;15.40;99.90;;;;;;5068905;28;20379;-80
2021/08/28 04:13:12;;;;;;;4.68;1.50;;;15.40;99.90;;;;;;5068696;28;20380;-80
2021/08/28 04:15:39;;;;;;;3.40;1.33;;;15.40;99.90;;;;;;5020310;28;20048;-80
2021/08/28 04:18:35;;;;;;;9.75;5.15;;;15.40;99.90;;;;;;5068823;28;20064;-80
2021/08/28 04:21:19;;;;;;;14.90;9.10;;;15.40;99.90;;;;;;5037535;28;20134;-80
2021/08/28 04:23:47;;;;;;;7.85;5.45;;;15.30;99.90;;;;;;5069176;28;20039;-81
2021/08/28 04:26:32;;;;;;;7.85;3.00;;;15.30;99.90;;;;;;5085456;28;20032;-80
2021/08/28 04:28:59;;;;;;;5.90;2.28;;;15.40;99.90;;;;;;5051512;28;20503;-80
2021/08/28 04:31:28;;;;;;;11.93;4.40;;;15.40;99.90;;;;;;5068201;28;20044;-80
2021/08/28 04:33:55;;;;;;;7.07;3.10;;;15.40;99.90;;;;;;5051572;28;20036;-81
2021/08/28 04:36:21;;;;;;;6.05;2.38;;;15.40;99.90;;;;;;5078197;28;20041;-81
2021/08/28 04:38:48;;;;;;;7.65;3.15;;;15.30;99.90;;;;;;5068501;28;20040;-79
2021/08/28 04:41:20;;;;;;;5.57;2.92;;;15.30;99.90;;;;;;5051762;28;20052;-79
2021/08/28 04:43:47;;;;;;;7.47;2.53;;;15.20;99.90;;;;;;5049658;28;20045;-80
2021/08/28 04:46:22;;;;;;;6.35;2.80;;;15.20;99.90;;;;;;5053439;28;20028;-79
2021/08/28 04:48:50;;;;;;;6.90;3.22;;;15.10;99.90;;;;;;5056101;28;20043;-79
2021/08/28 04:51:43;;;;;;;8.10;2.88;;;15.10;99.90;;;;;;5065546;28;20055;-81
2021/08/28 04:54:14;;;;;;;4.45;2.38;;;15.00;99.90;;;;;;5021647;28;20048;-80
2021/08/28 04:56:45;;;;;;;8.52;2.50;;;15.00;99.90;;;;;;5033299;28;20053;-81
2021/08/28 04:59:13;;;;;;;7.10;3.20;;;15.00;99.90;;;;;;5005866;28;20041;-81
2021/08/28 05:01:41;;;;;;;6.45;2.47;;;14.90;99.90;;;;;;5049919;28;20056;-81
2021/08/28 05:04:26;;;;;;;5.65;2.63;;;14.90;99.90;;;;;;5057546;28;20032;-81
2021/08/28 05:06:54;;;;;;;6.65;2.58;;;15.00;99.90;;;;;;5067862;28;20027;-80
2021/08/28 05:09:26;;;;;;;5.10;3.00;;;15.00;99.90;;;;;;5049508;28;20048;-82
2021/08/28 05:11:53;;;;;;;10.25;2.60;;;15.00;99.90;;;;;;5051572;28;20514;-79
2021/08/28 05:14:19;;;;;;;7.68;2.80;;;15.10;99.90;;;;;;5068026;28;20386;-79
2021/08/28 05:16:48;;;;;;;4.35;2.47;;;15.20;99.90;;;;;;5050789;28;20028;-79
2021/08/28 05:19:33;;;;;;;7.35;2.13;;;15.20;99.90;;;;;;5052024;28;20040;-79
2021/08/28 05:22:03;;;;;;;8.57;3.10;;;15.20;99.90;;;;;;5051190;28;20032;-79
2021/08/28 05:24:58;;;;;;;5.93;2.65;;;15.30;99.90;;;;;;5042883;28;20044;-81
2021/08/28 05:27:25;;;;;;;9.90;3.53;;;15.30;99.90;;;;;;5034848;28;20036;-81
2021/08/28 05:29:51;;;;;;;7.55;2.70;;;15.30;99.90;;;;;;5067361;28;20036;-79
2021/08/28 05:32:18;;;;;;;7.75;2.40;;;15.30;99.90;;;;;;5077968;28;21409;-80
2021/08/28 05:34:44;;;;;;;5.72;2.05;;;15.30;99.90;;;;;;5067510;28;20053;-79
2021/08/28 05:37:36;;;;;;;7.40;2.55;;;15.30;99.90;;;;;;5068127;28;20040;-82
2021/08/28 05:40:10;;;;;;;5.80;2.47;;;15.30;99.90;;;;;;5038935;28;20044;-79
2021/08/28 05:42:37;;;;;;;7.03;2.35;;;15.40;99.90;;;;;;5052547;28;21361;-81
2021/08/28 05:45:04;;;;;;;9.50;3.40;;;15.30;99.90;;;;;;5072022;28;20028;-81
2021/08/28 05:47:31;;;;;;;4.47;2.40;;;15.40;99.90;;;;;;5035683;28;20048;-79
2021/08/28 05:49:58;;;;;;;5.85;2.97;;;15.40;99.90;;;;;;5052741;28;20036;-79
2021/08/28 05:52:25;;;;;;;8.85;2.45;;;15.50;99.90;;;;;;5088940;28;20048;-79
2021/08/28 05:54:52;;;;;;;7.70;2.88;;;15.50;99.90;;;;;;5071097;28;20040;-79
2021/08/28 05:57:18;;;;;;;7.68;2.88;;;15.60;99.90;;;;;;5069540;28;20036;-79
2021/08/28 05:59:45;;;;;;;7.35;3.42;;;15.60;99.90;;;;;;5041574;28;20041;-79
2021/08/28 06:02:13;;;;;;;8.18;2.75;;;15.80;99.90;;;;;;5060530;28;20392;-82
2021/08/28 06:04:40;;;;;;;10.00;3.10;;;15.90;99.90;;;;;;5065756;28;20040;-82
2021/08/28 06:07:10;;;;;;;5.15;2.88;;;16.00;99.90;;;;;;5087187;28;20027;-81
2021/08/28 06:09:55;;;;;;;12.85;3.47;;;16.00;99.90;;;;;;5071033;28;20383;-83
2021/08/28 06:12:42;;;;;;;10.00;4.05;;;16.10;99.90;;;;;;5079836;28;20070;-82
2021/08/28 06:15:14;;;;;;;9.32;3.53;;;16.10;99.90;;;;;;5070099;28;20044;-82
2021/08/28 06:17:51;;;;;;;5.57;3.10;;;16.20;99.90;;;;;;5066998;28;20047;-82
2021/08/28 06:20:18;;;;;;;11.38;3.38;;;16.20;99.90;;;;;;5020576;28;20043;-82
2021/08/28 06:22:44;;;;;;;8.82;3.05;;;16.30;99.90;;;;;;5036369;28;20044;-82
2021/08/28 06:25:12;;;;;;;9.35;3.50;;;16.30;99.90;;;;;;5069270;28;20058;-82
2021/08/28 06:27:38;;;;;;;8.05;3.35;;;16.30;99.90;;;;;;5051077;28;20043;-79
2021/08/28 06:30:10;;;;;;;4.38;2.55;;;16.30;99.90;;;;;;5069045;28;20039;-80
2021/08/28 06:32:37;;;;;;;5.78;2.97;;;16.30;99.90;;;;;;5037214;28;20048;-81
2021/08/28 06:35:05;;;;;;;5.38;2.92;;;16.20;99.90;;;;;;5050372;28;20040;-84
2021/08/28 06:37:41;;;;;;;5.82;2.75;;;16.10;99.90;;;;;;5037670;28;20603;-82
2021/08/28 06:40:28;;;;;;;6.80;2.58;;;16.00;99.90;;;;;;5043375;28;20044;-80
2021/08/28 06:43:33;;;;;;;5.70;2.38;;;16.00;99.90;;;;;;5053632;28;20043;-80
2021/08/28 06:46:18;;;;;;;7.80;4.93;;;16.00;99.90;;;;;;5035134;28;20048;-82
2021/08/28 06:49:04;;;;;;;6.32;5.43;;;16.00;99.90;;;;;;5052181;28;20040;-82
2021/08/28 06:51:59;;;;;;;10.35;7.90;;;16.00;99.90;;;;;;4997388;28;20050;-81
2021/08/28 06:54:44;;;;;;;6.93;3.65;;;16.00;99.90;;;;;;5036522;28;20047;-82
2021/08/28 06:57:30;;;;;;;5.97;3.08;;;16.10;99.90;;;;;;5052064;28;20040;-82
2021/08/28 07:00:32;;;;;;;8.63;5.13;;;16.20;99.90;;;;;;5000272;28;20056;-80
2021/08/28 07:03:21;;;;;;;11.35;6.97;;;16.30;99.90;;;;;;5026673;28;20047;-81
2021/08/28 07:05:49;;;;;;;10.80;5.00;;;16.50;99.90;;;;;;5021442;28;20651;-81
2021/08/28 07:08:24;;;;;;;7.65;4.03;;;16.60;99.90;;;;;;5017297;28;20043;-81
2021/08/28 07:10:51;;;;;;;9.02;3.90;;;16.60;99.90;;;;;;4997808;28;20067;-81
2021/08/28 07:13:18;;;;;;;6.63;3.10;;;16.60;99.90;;;;;;5035774;28;20032;-81
2021/08/28 07:15:44;;;;;;;6.45;3.15;;;16.60;99.90;;;;;;5019220;28;20064;-82
2021/08/28 07:18:16;;;;;;;12.02;5.43;;;16.70;99.90;;;;;;5016066;28;20052;-81
2021/08/28 07:20:43;;;;;;;13.43;6.68;;;16.70;99.90;;;;;;5016632;28;20044;-81
2021/08/28 07:23:11;;;;;;;10.27;6.40;;;16.70;99.90;;;;;;5050117;28;20037;-81
2021/08/28 07:25:55;;;;;;;10.30;5.95;;;16.70;99.90;;;;;;5031083;28;20048;-83
2021/08/28 07:28:22;;;;;;;10.98;3.90;;;16.80;99.90;;;;;;5049420;28;20388;-80
2021/08/28 07:31:05;;;;;;;10.30;4.05;;;16.80;99.90;;;;;;5050951;28;20040;-79
2021/08/28 07:33:33;;;;;;;10.18;5.00;;;16.80;99.90;;;;;;5048932;28;20047;-80
2021/08/28 07:36:00;;;;;;;8.27;3.88;;;16.90;99.90;;;;;;5033423;28;20053;-80
2021/08/28 07:38:30;;;;;;;6.50;3.53;;;17.00;99.90;;;;;;5033754;28;20028;-81
2021/08/28 07:40:56;;;;;;;8.48;4.43;;;17.00;99.90;;;;;;5064649;28;20055;-81
2021/08/28 07:43:23;;;;;;;9.63;4.40;;;17.10;99.90;;;;;;5053411;28;20380;-81
2021/08/28 07:45:56;;;;;;;9.73;4.22;;;17.10;99.90;;;;;;5069367;28;20036;-81
2021/08/28 07:48:27;;;;;;;8.23;4.22;;;17.30;99.90;;;;;;5012519;28;20040;-82
2021/08/28 07:50:55;;;;;;;6.43;3.72;;;17.50;99.90;;;;;;5052995;28;20051;-82
2021/08/28 07:53:22;;;;;;;8.25;3.42;;;17.60;99.90;;;;;;5036306;28;20047;-83
2021/08/28 07:55:54;;;;;;;10.45;3.55;;;17.70;99.90;;;;;;5052439;28;20052;-83
2021/08/28 07:58:20;;;;;;;12.05;4.35;;;17.80;99.90;;;;;;5051094;28;20055;-83
2021/08/28 08:00:47;;;;;;;8.25;3.65;;;17.90;99.90;;;;;;5035131;28;20837;-83
2021/08/28 08:03:13;;;;;;;10.35;3.75;;;17.90;99.90;;;;;;5053138;28;20036;-83
2021/08/28 08:06:00;;;;;;;11.93;4.47;;;18.00;99.90;;;;;;5037854;28;20060;-83
2021/08/28 08:08:47;;;;;;;9.27;4.07;;;18.10;99.90;;;;;;5007228;28;20051;-83
2021/08/28 08:11:32;;;;;;;10.10;3.95;;;18.10;99.90;;;;;;5054971;28;20044;-83
2021/08/28 08:14:17;;;;;;;12.70;5.47;;;18.20;99.90;;;;;;5055462;28;20055;-83
2021/08/28 08:17:03;;;;;;;7.90;3.47;;;18.30;99.90;;;;;;5085598;28;20716;-83
2021/08/28 08:19:55;;;;;;;10.65;3.60;;;18.30;99.90;;;;;;5054300;28;20052;-83
2021/08/28 08:22:41;;;;;;;10.23;3.75;;;18.30;99.90;;;;;;5053481;28;20578;-82
2021/08/28 08:25:30;;;;;;;12.48;5.05;;;18.20;99.90;;;;;;5032827;28;20055;-84
2021/08/28 08:28:00;;;;;;;6.93;3.80;;;18.20;99.90;;;;;;5034161;28;20048;-79
2021/08/28 08:30:45;;;;;;;11.77;4.63;;;18.20;99.90;;;;;;5065715;28;20415;-79
2021/08/28 08:33:19;;;;;;;9.98;4.03;;;18.30;99.90;;;;;;5065800;28;20696;-80
2021/08/28 08:35:52;;;;;;;;;;;18.30;99.90;;;;;;5037978;28;20044;-80
2021/08/28 08:38:19;;;;;;;10.45;3.50;;;18.20;99.90;;;;;;5034429;28;19915;-80
2021/08/28 08:40:47;;;;;;;9.13;3.33;;;18.30;99.90;;;;;;5034959;28;20043;-80
2021/08/28 08:43:14;;;;;;;10.13;4.53;;;18.40;99.90;;;;;;5034908;28;20617;-80
2021/08/28 08:45:42;;;;;;;11.90;4.93;;;18.70;99.90;;;;;;5051972;28;20044;-80
2021/08/28 08:48:09;;;;;;;6.78;3.63;;;19.00;99.90;;;;;;5066883;28;20031;-80
2021/08/28 08:50:35;;;;;;;4.78;3.53;;;19.20;99.90;;;;;;5051503;28;20052;-80
2021/08/28 08:53:04;;;;;;;7.18;3.67;;;19.40;99.90;;;;;;5049955;28;20048;-80
2021/08/28 08:55:39;;;;;;;7.28;4.28;;;19.60;99.90;;;;;;5068502;28;20028;-80
2021/08/28 08:58:07;;;;;;;4.82;3.08;;;19.60;99.90;;;;;;5050241;28;20044;-79
2021/08/28 09:00:35;;;;;;;8.48;3.90;;;19.60;99.90;;;;;;5037526;28;20048;-80
2021/08/28 09:03:27;;;;;;;8.98;3.38;;;19.70;99.90;;;;;;5061838;28;20048;-80
2021/08/28 09:05:58;;;;;;;8.38;3.88;;;19.70;99.90;;;;;;5065825;28;20028;-80
2021/08/28 09:08:27;;;;;;;6.15;3.30;;;19.60;99.90;;;;;;5064273;28;20040;-80
2021/08/28 09:10:54;;;;;;;7.28;3.05;;;19.60;99.90;;;;;;5052399;28;20036;-80
2021/08/28 09:13:23;;;;;;;9.73;4.07;;;19.60;99.90;;;;;;5038413;28;20055;-83
2021/08/28 09:15:55;;;;;;;10.52;3.83;;;19.60;99.90;;;;;;5054960;28;20047;-79
2021/08/28 09:18:22;;;;;;;6.75;3.25;;;19.60;99.90;;;;;;5069161;28;20394;-78
2021/08/28 09:20:52;;;;;;;6.78;3.33;;;19.50;99.90;;;;;;5056217;28;20052;-88
2021/08/28 09:23:19;;;;;;;5.50;3.00;;;19.60;99.90;;;;;;5022109;28;20091;-85
2021/08/28 09:25:48;;;;;;;6.57;3.22;;;19.80;99.90;;;;;;5055310;28;20039;-84
2021/08/28 09:28:16;;;;;;;7.50;3.58;;;19.90;99.90;;;;;;5052572;28;20051;-78
2021/08/28 09:30:45;;;;;;;6.03;3.00;;;20.00;99.90;;;;;;5070846;28;20039;-80
2021/08/28 09:33:14;;;;;;;8.73;3.10;;;20.00;99.90;;;;;;5053383;28;20810;-80
2021/08/28 09:35:49;;;;;;;4.55;2.38;;;20.10;99.90;;;;;;5054391;28;20230;-79
2021/08/28 09:38:20;;;;;;;6.28;3.05;;;20.20;99.90;;;;;;5051057;28;20048;-80
2021/08/28 09:40:55;;;;;;;9.45;4.53;;;20.20;99.90;;;;;;5071399;28;20043;-81
2021/08/28 09:43:24;;;;;;;10.63;3.88;;;20.20;99.90;;;;;;5070260;28;20894;-81
2021/08/28 09:45:53;;;;;;;8.75;4.28;;;20.20;99.90;;;;;;5055324;28;20032;-80
2021/08/28 09:48:26;;;;;;;5.13;2.75;;;20.10;99.90;;;;;;5068447;28;20028;-82
2021/08/28 09:50:54;;;;;;;6.05;2.63;;;20.20;99.90;;;;;;5054090;28;20071;-80
2021/08/28 09:53:26;;;;;;;8.00;2.63;;;20.20;99.90;;;;;;5049586;28;20040;-85
2021/08/28 09:56:01;;;;;;;6.20;2.95;;;20.20;99.90;;;;;;5054114;28;20051;-81
2021/08/28 09:58:33;;;;;;;4.05;2.67;;;20.20;99.90;;;;;;5051747;28;20058;-80
2021/08/28 10:01:02;;;;;;;4.55;2.58;;;20.20;99.90;;;;;;5052301;28;20044;-81
2021/08/28 10:03:30;;;;;;;4.97;2.35;;;20.30;99.90;;;;;;5035143;28;20480;-81
2021/08/28 10:05:59;;;;;;;3.97;1.83;;;20.40;99.90;;;;;;5037095;28;20036;-81
2021/08/28 10:08:27;;;;;;;5.90;2.85;;;20.30;99.90;;;;;;5035372;28;20051;-81
2021/08/28 10:10:55;;;;;;;4.55;2.78;;;20.50;99.90;;;;;;5054845;28;20064;-82
2021/08/28 10:13:23;;;;;;;4.93;1.85;;;20.70;99.90;;;;;;5052758;28;20047;-87
2021/08/28 10:15:50;;;;;;;6.03;3.20;;;20.90;99.90;;;;;;5036846;28;20048;-86
2021/08/28 10:18:18;;;;;;;6.35;3.15;;;21.20;99.70;;;;;;5074104;28;20029;-86
2021/08/28 10:20:46;;;;;;;5.47;1.83;;;21.50;98.80;;;;;;5046234;28;20059;-83
2021/08/28 10:23:17;;;;;;;4.88;2.30;;;21.70;98.20;;;;;;5054331;28;20464;-87
2021/08/28 10:25:46;;;;;;;10.27;4.15;;;21.70;97.40;;;;;;5070573;28;20052;-88
2021/08/28 10:28:13;;;;;;;3.92;2.63;;;21.80;97.60;;;;;;5052628;28;20036;-83
2021/08/28 10:30:42;;;;;;;5.20;3.15;;;21.80;97.00;;;;;;5037625;28;20055;-88
2021/08/28 10:33:08;;;;;;;11.75;1.98;;;21.80;97.20;;;;;;5036770;28;20040;-88
2021/08/28 10:35:35;;;;;;;6.72;2.45;;;21.70;96.80;;;;;;5053731;28;20044;-89
2021/08/28 10:38:02;;;;;;;5.68;2.60;;;21.70;96.40;;;;;;5085401;28;20040;-85
2021/08/28 10:40:33;;;;;;;5.03;1.95;;;21.70;96.50;;;;;;5070327;28;20060;-85
2021/08/28 10:43:05;;;;;;;3.55;1.70;;;21.80;96.10;;;;;;5052516;28;20038;-85
2021/08/28 10:45:34;;;;;;;3.22;1.40;;;21.90;96.10;;;;;;5088770;28;20028;-84
2021/08/28 10:48:19;;;;;;;2.90;1.48;;;22.00;96.10;;;;;;5067958;28;20040;-86
2021/08/28 10:50:52;;;;;;;3.70;2.63;;;22.00;95.80;;;;;;5053936;28;20071;-86
2021/08/28 10:53:19;;;;;;;5.85;4.32;;;22.00;96.10;;;;;;5087208;28;20395;-85
2021/08/28 10:55:48;;;;;;;6.63;3.97;;;22.00;96.40;;;;;;5054365;28;20513;-83
2021/08/28 10:58:23;;;;;;;3.90;1.85;;;22.00;96.60;;;;;;5052311;28;20043;-89
2021/08/28 11:00:55;;;;;;;3.90;1.55;;;22.00;96.10;;;;;;5069506;28;20039;-86
2021/08/28 11:03:33;;;;;;;4.75;1.73;;;22.10;95.70;;;;;;5088380;28;20028;-87
2021/08/28 11:06:18;;;;;;;2.88;1.45;;;22.50;95.80;;;;;;5052773;28;20040;-80
2021/08/28 11:08:53;;;;;;;4.13;1.30;;;22.60;95.30;;;;;;5068173;28;20048;-82
2021/08/28 11:11:30;;;;;;;3.47;1.48;;;22.70;94.60;;;;;;5052054;28;20039;-83
2021/08/28 11:14:06;;;;;;;2.33;1.10;;;22.90;94.80;;;;;;5053860;28;20048;-82
2021/08/28 11:16:44;;;;;;;5.10;1.67;;;23.20;95.10;;;;;;5087836;28;21241;-89
2021/08/28 11:19:22;;;;;;;4.50;1.10;;;23.30;93.60;;;;;;5036384;28;20040;-89
2021/08/28 11:21:50;;;;;;;3.50;1.50;;;23.10;93.70;;;;;;5050994;28;20048;-89
2021/08/28 11:24:19;;;;;;;3.42;1.63;;;22.80;93.40;;;;;;5037900;28;20074;-81
2021/08/28 11:26:56;;;;;;;3.15;1.30;;;22.60;93.20;;;;;;5036203;28;20456;-83
2021/08/28 11:29:33;;;;;;;4.50;1.60;;;22.40;92.70;;;;;;5052249;28;20566;-83
2021/08/28 11:32:14;;;;;;;3.78;1.30;;;22.30;93.50;;;;;;5050602;28;20048;-83
2021/08/28 11:34:43;;;;;;;4.00;1.20;;;22.60;93.80;;;;;;5033173;28;20044;-83
2021/08/28 11:37:28;;;;;;;5.53;1.88;;;23.00;93.40;;;;;;5048846;28;20044;-82
2021/08/28 11:40:21;;;;;;;3.92;1.40;;;23.30;92.80;;;;;;5047898;28;20048;-82
2021/08/28 11:42:49;;;;;;;2.42;1.23;;;23.70;92.20;;;;;;5059338;28;20056;-81
2021/08/28 11:45:19;;;;;;;6.60;1.80;;;24.30;92.10;;;;;;5054053;28;20036;-83
2021/08/28 11:47:46;;;;;;;5.28;1.40;;;25.10;91.00;;;;;;5030511;28;20044;-83
2021/08/28 11:50:12;;;;;;;2.65;1.15;;;25.60;90.30;;;;;;5084080;28;20074;-82
2021/08/28 11:52:40;;;;;;;2.90;1.15;;;25.30;88.50;;;;;;5065231;28;20040;-79
2021/08/28 11:55:09;;;;;;;3.58;1.30;;;24.80;89.20;;;;;;5084263;28;20035;-79
2021/08/28 11:57:36;;;;;;;5.20;1.35;;;24.30;90.10;;;;;;5050408;28;20024;-81
2021/08/28 12:00:07;;;;;;;4.07;1.35;;;24.10;90.30;;;;;;5065289;28;20620;-82
2021/08/28 12:02:40;;;;;;;3.25;1.13;;;24.50;90.80;;;;;;5034064;28;20044;-82
2021/08/28 12:05:13;;;;;;;4.63;1.60;;;25.00;88.20;;;;;;5049657;28;20527;-83
2021/08/28 12:07:40;;;;;;;5.18;2.72;;;25.10;86.50;;;;;;5064111;28;20479;-82
2021/08/28 12:10:07;;;;;;;7.35;4.38;;;24.70;87.40;;;;;;5063839;28;20521;-82
2021/08/28 12:12:34;;;;;;;3.95;1.83;;;24.10;88.60;;;;;;5032797;28;20059;-85
2021/08/28 12:15:05;;;;;;;3.83;1.75;;;23.60;89.70;;;;;;5048688;28;20063;-78
2021/08/28 12:17:32;;;;;;;4.07;1.27;;;23.60;90.90;;;;;;5082074;28;20028;-79
2021/08/28 12:20:00;;;;;;;2.95;1.30;;;23.80;88.90;;;;;;5064597;28;20040;-79
2021/08/28 12:22:28;;;;;;;5.00;1.10;;;23.70;89.40;;;;;;5049471;28;20035;-81
2021/08/28 12:24:54;;;;;;;2.72;1.00;;;23.30;89.40;;;;;;5048288;28;20036;-80
2021/08/28 12:27:22;;;;;;;2.17;1.00;;;22.80;90.30;;;;;;5030525;28;20032;-82
2021/08/28 12:29:52;;;;;;;4.95;1.42;;;22.40;90.80;;;;;;5065524;28;20035;-82
2021/08/28 12:32:30;;;;;;;4.50;0.85;;;22.20;91.30;;;;;;5049046;28;20495;-82
2021/08/28 12:34:59;;;;;;;3.63;1.40;;;22.20;92.00;;;;;;5050171;28;20036;-83
2021/08/28 12:37:27;;;;;;;2.20;0.90;;;22.30;91.20;;;;;;5030306;28;20044;-82
2021/08/28 12:39:55;;;;;;;2.50;1.00;;;22.50;91.50;;;;;;5065698;28;20418;-81
2021/08/28 12:42:24;;;;;;;1.65;0.85;;;22.80;91.50;;;;;;5049457;28;20040;-81
2021/08/28 12:44:52;;;;;;;3.33;1.40;;;22.90;91.40;;;;;;5049431;28;20039;-81
2021/08/28 12:47:22;;;;;;;4.97;1.73;;;23.10;90.60;;;;;;5063470;28;20387;-82
2021/08/28 12:49:51;;;;;;;2.70;0.82;;;23.10;90.50;;;;;;5048750;28;20486;-83
2021/08/28 12:52:17;;;;;;;5.72;1.30;;;23.30;90.80;;;;;;5032545;28;20036;-78
2021/08/28 12:54:49;;;;;;;5.65;1.75;;;23.70;90.40;;;;;;5049604;28;20039;-78
2021/08/28 12:57:20;;;;;;;;;;;23.60;90.20;;;;;;5081984;28;20032;-78
2021/08/28 12:59:50;;;;;;;4.15;0.93;;;23.30;90.60;;;;;;5064563;28;19916;-81
2021/08/28 13:02:22;;;;;;;3.30;1.23;;;22.90;91.00;;;;;;5030977;28;20044;-79
2021/08/28 13:04:50;;;;;;;7.68;3.25;;;22.50;91.40;;;;;;5066222;28;20422;-81
2021/08/28 13:07:17;;;;;;;3.30;1.48;;;22.50;91.80;;;;;;5064269;28;20514;-81
2021/08/28 13:09:55;;;;;;;3.95;0.95;;;23.20;91.50;;;;;;5050488;28;20032;-82